sensor_id;sensor_type;location;lat;lon;timestamp;pressure;altitude;pressure_sealevel;temperature;humidity
35910;BME280;22004;49.120;-0.200;2022-08-16T00:00:58;100467.22;;;20.72;75.30
35910;BME280;22004;49.120;-0.200;2022-08-16T00:03:23;100467.22;;;20.72;75.12
35910;BME280;22004;49.120;-0.200;2022-08-16T00:05:49;100466.59;;;20.78;75.13
35910;BME280;22004;49.120;-0.200;2022-08-16T00:08:16;100468.47;;;20.40;75.39
35910;BME280;22004;49.120;-0.200;2022-08-16T00:10:41;100462.69;;;20.62;76.12
35910;BME280;22004;49.120;-0.200;2022-08-16T00:13:09;100455.41;;;20.73;75.61
35910;BME280;22004;49.120;-0.200;2022-08-16T00:15:43;100453.22;;;20.86;75.30
35910;BME280;22004;49.120;-0.200;2022-08-16T00:18:10;100458.75;;;20.57;74.99
35910;BME280;22004;49.120;-0.200;2022-08-16T00:20:39;100448.88;;;20.75;75.38
35910;BME280;22004;49.120;-0.200;2022-08-16T00:23:05;100441.72;;;20.56;74.93
35910;BME280;22004;49.120;-0.200;2022-08-16T00:25:30;100432.31;;;20.70;75.78
35910;BME280;22004;49.120;-0.200;2022-08-16T00:27:57;100434.16;;;20.69;75.89
35910;BME280;22004;49.120;-0.200;2022-08-16T00:30:23;100425.56;;;20.28;76.65
35910;BME280;22004;49.120;-0.200;2022-08-16T00:32:51;100421.56;;;20.60;76.20
35910;BME280;22004;49.120;-0.200;2022-08-16T00:35:24;100414.00;;;20.08;77.99
35910;BME280;22004;49.120;-0.200;2022-08-16T00:37:50;100420.56;;;19.76;79.37
35910;BME280;22004;49.120;-0.200;2022-08-16T00:40:20;100411.56;;;20.15;78.24
35910;BME280;22004;49.120;-0.200;2022-08-16T00:42:46;100414.28;;;20.43;77.21
35910;BME280;22004;49.120;-0.200;2022-08-16T00:48:15;100411.00;;;20.49;77.15
35910;BME280;22004;49.120;-0.200;2022-08-16T00:50:41;100411.69;;;20.51;76.87
35910;BME280;22004;49.120;-0.200;2022-08-16T00:53:09;100408.38;;;20.29;76.61
35910;BME280;22004;49.120;-0.200;2022-08-16T00:55:38;100405.19;;;20.44;77.01
35910;BME280;22004;49.120;-0.200;2022-08-16T00:58:05;100403.50;;;20.43;77.11
35910;BME280;22004;49.120;-0.200;2022-08-16T01:00:33;100396.53;;;20.50;76.84
35910;BME280;22004;49.120;-0.200;2022-08-16T01:03:04;100396.66;;;20.21;77.06
35910;BME280;22004;49.120;-0.200;2022-08-16T01:05:32;100390.03;;;20.43;76.95
35910;BME280;22004;49.120;-0.200;2022-08-16T01:08:00;100401.47;;;20.55;76.73
35910;BME280;22004;49.120;-0.200;2022-08-16T01:10:28;100412.78;;;20.58;76.83
35910;BME280;22004;49.120;-0.200;2022-08-16T01:12:54;100418.88;;;20.60;76.35
35910;BME280;22004;49.120;-0.200;2022-08-16T01:15:20;100418.34;;;20.57;76.73
35910;BME280;22004;49.120;-0.200;2022-08-16T01:17:46;100415.25;;;20.51;76.89
35910;BME280;22004;49.120;-0.200;2022-08-16T01:20:16;100419.34;;;20.56;76.72
35910;BME280;22004;49.120;-0.200;2022-08-16T01:22:55;100418.34;;;20.57;77.04
35910;BME280;22004;49.120;-0.200;2022-08-16T01:25:26;100414.78;;;20.56;77.20
35910;BME280;22004;49.120;-0.200;2022-08-16T01:27:54;100408.72;;;20.54;77.17
35910;BME280;22004;49.120;-0.200;2022-08-16T01:30:24;100411.94;;;20.58;76.95
35910;BME280;22004;49.120;-0.200;2022-08-16T01:32:51;100413.88;;;20.65;76.78
35910;BME280;22004;49.120;-0.200;2022-08-16T01:35:23;100413.47;;;20.60;76.95
35910;BME280;22004;49.120;-0.200;2022-08-16T01:37:53;100418.34;;;20.57;77.07
35910;BME280;22004;49.120;-0.200;2022-08-16T01:40:24;100407.09;;;20.61;77.07
35910;BME280;22004;49.120;-0.200;2022-08-16T01:42:50;100405.44;;;20.50;77.31
35910;BME280;22004;49.120;-0.200;2022-08-16T01:45:18;100409.13;;;20.49;77.49
35910;BME280;22004;49.120;-0.200;2022-08-16T01:47:45;100412.69;;;20.50;77.56
35910;BME280;22004;49.120;-0.200;2022-08-16T01:50:11;100408.00;;;20.52;77.36
35910;BME280;22004;49.120;-0.200;2022-08-16T01:52:37;100406.69;;;20.56;76.94
35910;BME280;22004;49.120;-0.200;2022-08-16T01:55:04;100396.56;;;20.40;77.50
35910;BME280;22004;49.120;-0.200;2022-08-16T01:57:30;100393.84;;;20.50;77.47
35910;BME280;22004;49.120;-0.200;2022-08-16T01:59:55;100387.19;;;20.44;77.77
35910;BME280;22004;49.120;-0.200;2022-08-16T02:02:21;100395.00;;;20.38;77.88
35910;BME280;22004;49.120;-0.200;2022-08-16T02:04:49;100395.56;;;20.41;77.77
35910;BME280;22004;49.120;-0.200;2022-08-16T02:07:15;100391.47;;;20.37;78.08
35910;BME280;22004;49.120;-0.200;2022-08-16T02:09:43;100398.22;;;20.51;77.55
35910;BME280;22004;49.120;-0.200;2022-08-16T02:12:09;100399.81;;;20.44;77.56
35910;BME280;22004;49.120;-0.200;2022-08-16T02:14:36;100396.66;;;20.48;77.80
35910;BME280;22004;49.120;-0.200;2022-08-16T02:17:04;100404.31;;;20.53;77.28
35910;BME280;22004;49.120;-0.200;2022-08-16T02:19:32;100410.91;;;20.41;77.65
35910;BME280;22004;49.120;-0.200;2022-08-16T02:21:59;100413.75;;;20.39;78.04
35910;BME280;22004;49.120;-0.200;2022-08-16T02:24:27;100412.53;;;20.51;77.67
35910;BME280;22004;49.120;-0.200;2022-08-16T02:26:53;100426.44;;;20.47;77.47
35910;BME280;22004;49.120;-0.200;2022-08-16T02:29:19;100416.81;;;20.44;77.46
35910;BME280;22004;49.120;-0.200;2022-08-16T02:31:45;100412.88;;;20.39;77.90
35910;BME280;22004;49.120;-0.200;2022-08-16T02:34:12;100415.72;;;20.37;78.04
35910;BME280;22004;49.120;-0.200;2022-08-16T02:36:38;100407.78;;;20.35;78.51
35910;BME280;22004;49.120;-0.200;2022-08-16T02:39:04;100399.25;;;20.40;78.39
35910;BME280;22004;49.120;-0.200;2022-08-16T02:41:31;100406.41;;;20.31;78.72
35910;BME280;22004;49.120;-0.200;2022-08-16T02:43:57;100406.72;;;20.28;78.99
35910;BME280;22004;49.120;-0.200;2022-08-16T02:46:24;100399.00;;;20.33;78.67
35910;BME280;22004;49.120;-0.200;2022-08-16T02:48:50;100406.47;;;20.12;79.57
35910;BME280;22004;49.120;-0.200;2022-08-16T02:51:15;100417.84;;;20.06;80.03
35910;BME280;22004;49.120;-0.200;2022-08-16T02:53:44;100411.63;;;19.95;80.35
35910;BME280;22004;49.120;-0.200;2022-08-16T02:56:11;100411.09;;;19.92;81.04
35910;BME280;22004;49.120;-0.200;2022-08-16T02:58:37;100410.34;;;19.99;80.92
35910;BME280;22004;49.120;-0.200;2022-08-16T03:01:03;100408.72;;;20.16;79.73
35910;BME280;22004;49.120;-0.200;2022-08-16T03:03:28;100415.09;;;20.15;79.86
35910;BME280;22004;49.120;-0.200;2022-08-16T03:05:54;100408.84;;;20.25;79.42
35910;BME280;22004;49.120;-0.200;2022-08-16T03:08:21;100397.41;;;20.13;80.35
35910;BME280;22004;49.120;-0.200;2022-08-16T03:10:47;100411.81;;;19.84;81.44
35910;BME280;22004;49.120;-0.200;2022-08-16T03:13:14;100411.00;;;20.11;80.38
35910;BME280;22004;49.120;-0.200;2022-08-16T03:15:40;100401.31;;;20.28;79.33
35910;BME280;22004;49.120;-0.200;2022-08-16T03:18:06;100406.47;;;20.12;80.24
35910;BME280;22004;49.120;-0.200;2022-08-16T03:20:31;100403.31;;;20.26;79.74
35910;BME280;22004;49.120;-0.200;2022-08-16T03:22:56;100405.41;;;20.32;79.19
35910;BME280;22004;49.120;-0.200;2022-08-16T03:25:22;100395.69;;;20.12;80.70
35910;BME280;22004;49.120;-0.200;2022-08-16T03:27:47;100401.94;;;20.12;80.49
35910;BME280;22004;49.120;-0.200;2022-08-16T03:30:19;100398.63;;;20.28;79.70
35910;BME280;22004;49.120;-0.200;2022-08-16T03:32:46;100396.78;;;20.29;79.74
35910;BME280;22004;49.120;-0.200;2022-08-16T03:35:13;100390.34;;;20.40;78.80
35910;BME280;22004;49.120;-0.200;2022-08-16T03:37:38;100397.59;;;20.29;79.73
35910;BME280;22004;49.120;-0.200;2022-08-16T03:40:08;100401.28;;;20.00;81.86
35910;BME280;22004;49.120;-0.200;2022-08-16T03:42:33;100391.53;;;19.90;82.01
35910;BME280;22004;49.120;-0.200;2022-08-16T03:44:59;100385.88;;;19.83;82.65
35910;BME280;22004;49.120;-0.200;2022-08-16T03:47:25;100381.63;;;19.71;83.62
35910;BME280;22004;49.120;-0.200;2022-08-16T03:49:53;100384.75;;;19.66;84.21
35910;BME280;22004;49.120;-0.200;2022-08-16T03:52:20;100384.91;;;19.74;83.70
35910;BME280;22004;49.120;-0.200;2022-08-16T03:54:46;100380.03;;;19.97;82.07
35910;BME280;22004;49.120;-0.200;2022-08-16T03:57:14;100382.53;;;20.09;81.39
35910;BME280;22004;49.120;-0.200;2022-08-16T03:59:40;100379.78;;;20.28;80.02
35910;BME280;22004;49.120;-0.200;2022-08-16T04:02:05;100387.38;;;20.33;79.57
35910;BME280;22004;49.120;-0.200;2022-08-16T04:04:32;100379.31;;;20.33;79.89
35910;BME280;22004;49.120;-0.200;2022-08-16T04:06:58;100381.75;;;20.26;79.65
35910;BME280;22004;49.120;-0.200;2022-08-16T04:09:23;100384.38;;;20.36;79.57
35910;BME280;22004;49.120;-0.200;2022-08-16T04:11:48;100379.88;;;20.36;79.44
35910;BME280;22004;49.120;-0.200;2022-08-16T04:14:14;100381.25;;;20.41;78.87
35910;BME280;22004;49.120;-0.200;2022-08-16T04:16:39;100387.09;;;20.36;79.49
35910;BME280;22004;49.120;-0.200;2022-08-16T04:19:05;100382.00;;;20.33;79.62
35910;BME280;22004;49.120;-0.200;2022-08-16T04:21:32;100382.75;;;20.25;80.27
35910;BME280;22004;49.120;-0.200;2022-08-16T04:23:59;100375.34;;;19.99;81.92
35910;BME280;22004;49.120;-0.200;2022-08-16T04:26:25;100369.72;;;19.83;82.92
35910;BME280;22004;49.120;-0.200;2022-08-16T04:28:51;100366.13;;;19.45;85.43
35910;BME280;22004;49.120;-0.200;2022-08-16T04:31:16;100363.28;;;19.37;86.46
35910;BME280;22004;49.120;-0.200;2022-08-16T04:33:42;100365.41;;;19.52;85.59
35910;BME280;22004;49.120;-0.200;2022-08-16T04:36:07;100367.94;;;19.44;86.57
35910;BME280;22004;49.120;-0.200;2022-08-16T04:38:34;100366.22;;;19.63;84.95
35910;BME280;22004;49.120;-0.200;2022-08-16T04:40:59;100363.16;;;19.95;82.70
35910;BME280;22004;49.120;-0.200;2022-08-16T04:43:25;100366.34;;;19.81;83.33
35910;BME280;22004;49.120;-0.200;2022-08-16T04:45:50;100370.47;;;19.65;83.86
35910;BME280;22004;49.120;-0.200;2022-08-16T04:48:15;100371.13;;;19.87;83.17
35910;BME280;22004;49.120;-0.200;2022-08-16T04:50:41;100369.16;;;19.69;84.05
35910;BME280;22004;49.120;-0.200;2022-08-16T04:53:07;100371.97;;;19.78;83.59
35910;BME280;22004;49.120;-0.200;2022-08-16T04:55:32;100372.72;;;19.70;84.61
35910;BME280;22004;49.120;-0.200;2022-08-16T04:57:58;100368.06;;;19.62;85.13
35910;BME280;22004;49.120;-0.200;2022-08-16T05:00:26;100353.06;;;19.60;85.58
35910;BME280;22004;49.120;-0.200;2022-08-16T05:02:56;100360.97;;;19.81;83.82
35910;BME280;22004;49.120;-0.200;2022-08-16T05:05:22;100366.06;;;19.74;84.25
35910;BME280;22004;49.120;-0.200;2022-08-16T05:07:47;100370.72;;;19.72;84.61
35910;BME280;22004;49.120;-0.200;2022-08-16T05:10:13;100366.59;;;19.78;84.43
35910;BME280;22004;49.120;-0.200;2022-08-16T05:12:39;100380.91;;;19.68;85.14
35910;BME280;22004;49.120;-0.200;2022-08-16T05:15:06;100382.59;;;19.79;84.39
35910;BME280;22004;49.120;-0.200;2022-08-16T05:17:32;100387.25;;;20.07;82.04
35910;BME280;22004;49.120;-0.200;2022-08-16T05:19:58;100387.66;;;20.02;82.65
35910;BME280;22004;49.120;-0.200;2022-08-16T05:22:24;100400.91;;;19.76;84.38
35910;BME280;22004;49.120;-0.200;2022-08-16T05:24:49;100392.16;;;19.54;86.16
35910;BME280;22004;49.120;-0.200;2022-08-16T05:27:15;100395.84;;;19.04;89.87
35910;BME280;22004;49.120;-0.200;2022-08-16T05:29:41;100401.38;;;19.42;87.35
35910;BME280;22004;49.120;-0.200;2022-08-16T05:32:07;100404.88;;;19.72;85.14
35910;BME280;22004;49.120;-0.200;2022-08-16T05:34:33;100406.28;;;19.76;84.80
35910;BME280;22004;49.120;-0.200;2022-08-16T05:36:58;100401.88;;;19.84;84.47
35910;BME280;22004;49.120;-0.200;2022-08-16T05:39:24;100408.25;;;19.93;83.42
35910;BME280;22004;49.120;-0.200;2022-08-16T05:41:51;100402.00;;;20.02;82.83
35910;BME280;22004;49.120;-0.200;2022-08-16T05:44:18;100403.75;;;19.84;84.33
35910;BME280;22004;49.120;-0.200;2022-08-16T05:46:44;100407.38;;;20.02;83.06
35910;BME280;22004;49.120;-0.200;2022-08-16T05:49:11;100401.50;;;20.17;81.88
35910;BME280;22004;49.120;-0.200;2022-08-16T05:51:42;100408.78;;;20.07;82.54
35910;BME280;22004;49.120;-0.200;2022-08-16T05:54:09;100410.28;;;20.09;82.60
35910;BME280;22004;49.120;-0.200;2022-08-16T05:56:35;100404.69;;;20.02;82.89
35910;BME280;22004;49.120;-0.200;2022-08-16T05:59:01;100392.41;;;19.51;86.42
35910;BME280;22004;49.120;-0.200;2022-08-16T06:01:26;100394.63;;;19.95;83.28
35910;BME280;22004;49.120;-0.200;2022-08-16T06:03:52;100404.03;;;19.81;84.50
35910;BME280;22004;49.120;-0.200;2022-08-16T06:06:17;100414.59;;;20.02;82.84
35910;BME280;22004;49.120;-0.200;2022-08-16T06:08:42;100414.63;;;19.92;83.65
35910;BME280;22004;49.120;-0.200;2022-08-16T06:11:08;100411.50;;;19.77;84.61
35910;BME280;22004;49.120;-0.200;2022-08-16T06:13:35;100412.31;;;20.07;82.58
35910;BME280;22004;49.120;-0.200;2022-08-16T06:16:03;100405.06;;;20.08;82.48
35910;BME280;22004;49.120;-0.200;2022-08-16T06:18:29;100409.25;;;20.20;81.37
35910;BME280;22004;49.120;-0.200;2022-08-16T06:20:54;100418.94;;;20.13;82.22
35910;BME280;22004;49.120;-0.200;2022-08-16T06:23:20;100424.47;;;20.11;82.57
35910;BME280;22004;49.120;-0.200;2022-08-16T06:25:45;100427.63;;;20.07;82.74
35910;BME280;22004;49.120;-0.200;2022-08-16T06:28:11;100427.31;;;20.10;82.96
35910;BME280;22004;49.120;-0.200;2022-08-16T06:30:38;100433.41;;;20.12;82.08
35910;BME280;22004;49.120;-0.200;2022-08-16T06:33:03;100432.84;;;20.08;82.67
35910;BME280;22004;49.120;-0.200;2022-08-16T06:35:29;100432.56;;;20.11;82.72
35910;BME280;22004;49.120;-0.200;2022-08-16T06:37:55;100431.91;;;19.90;84.21
35910;BME280;22004;49.120;-0.200;2022-08-16T06:40:21;100424.97;;;19.87;84.39
35910;BME280;22004;49.120;-0.200;2022-08-16T06:42:49;100428.75;;;19.94;83.85
35910;BME280;22004;49.120;-0.200;2022-08-16T06:45:16;100421.38;;;20.06;83.22
35910;BME280;22004;49.120;-0.200;2022-08-16T06:47:42;100424.31;;;20.13;83.00
35910;BME280;22004;49.120;-0.200;2022-08-16T06:50:08;100417.56;;;19.99;84.02
35910;BME280;22004;49.120;-0.200;2022-08-16T06:52:34;100415.56;;;20.11;82.87
35910;BME280;22004;49.120;-0.200;2022-08-16T06:55:01;100411.88;;;20.02;84.22
35910;BME280;22004;49.120;-0.200;2022-08-16T06:57:26;100421.72;;;19.83;85.64
35910;BME280;22004;49.120;-0.200;2022-08-16T06:59:52;100421.81;;;20.01;84.66
35910;BME280;22004;49.120;-0.200;2022-08-16T07:02:17;100424.94;;;19.97;84.62
35910;BME280;22004;49.120;-0.200;2022-08-16T07:04:43;100431.78;;;19.81;85.89
35910;BME280;22004;49.120;-0.200;2022-08-16T07:07:09;100434.69;;;20.08;83.46
35910;BME280;22004;49.120;-0.200;2022-08-16T07:09:34;100431.47;;;19.94;84.87
35910;BME280;22004;49.120;-0.200;2022-08-16T07:12:00;100435.75;;;19.87;85.85
35910;BME280;22004;49.120;-0.200;2022-08-16T07:14:25;100441.94;;;19.78;86.12
35910;BME280;22004;49.120;-0.200;2022-08-16T07:16:51;100445.38;;;19.90;84.96
35910;BME280;22004;49.120;-0.200;2022-08-16T07:19:17;100443.41;;;19.82;85.94
35910;BME280;22004;49.120;-0.200;2022-08-16T07:21:42;100440.53;;;20.03;84.54
35910;BME280;22004;49.120;-0.200;2022-08-16T07:24:08;100447.16;;;20.09;83.76
35910;BME280;22004;49.120;-0.200;2022-08-16T07:26:34;100457.25;;;19.97;84.82
35910;BME280;22004;49.120;-0.200;2022-08-16T07:28:59;100458.69;;;19.91;85.66
35910;BME280;22004;49.120;-0.200;2022-08-16T07:31:25;100461.78;;;19.77;86.89
35910;BME280;22004;49.120;-0.200;2022-08-16T07:33:51;100457.53;;;19.94;85.72
35910;BME280;22004;49.120;-0.200;2022-08-16T07:36:16;100466.03;;;19.99;85.64
35910;BME280;22004;49.120;-0.200;2022-08-16T07:38:43;100462.91;;;20.03;84.47
35910;BME280;22004;49.120;-0.200;2022-08-16T07:41:08;100475.06;;;20.08;84.34
35910;BME280;22004;49.120;-0.200;2022-08-16T07:43:34;100468.59;;;20.00;85.53
35910;BME280;22004;49.120;-0.200;2022-08-16T07:46:00;100466.75;;;19.91;86.23
35910;BME280;22004;49.120;-0.200;2022-08-16T07:48:26;100467.59;;;19.72;87.93
35910;BME280;22004;49.120;-0.200;2022-08-16T07:50:52;100462.25;;;19.62;89.05
35910;BME280;22004;49.120;-0.200;2022-08-16T07:53:18;100456.84;;;19.72;87.89
35910;BME280;22004;49.120;-0.200;2022-08-16T07:55:43;100447.78;;;19.73;87.36
35910;BME280;22004;49.120;-0.200;2022-08-16T07:58:08;100449.78;;;19.81;87.59
35910;BME280;22004;49.120;-0.200;2022-08-16T08:00:34;100479.06;;;20.13;85.06
35910;BME280;22004;49.120;-0.200;2022-08-16T08:03:00;100486.38;;;20.21;85.03
35910;BME280;22004;49.120;-0.200;2022-08-16T08:05:26;100493.28;;;20.33;84.09
35910;BME280;22004;49.120;-0.200;2022-08-16T08:07:52;100494.00;;;20.35;84.79
35910;BME280;22004;49.120;-0.200;2022-08-16T08:10:19;100501.53;;;20.32;84.49
35910;BME280;22004;49.120;-0.200;2022-08-16T08:12:47;100508.03;;;20.29;85.67
35910;BME280;22004;49.120;-0.200;2022-08-16T08:15:13;100508.03;;;20.39;85.02
35910;BME280;22004;49.120;-0.200;2022-08-16T08:17:39;100511.53;;;20.49;84.92
35910;BME280;22004;49.120;-0.200;2022-08-16T08:20:06;100516.38;;;20.46;85.18
35910;BME280;22004;49.120;-0.200;2022-08-16T08:22:32;100518.88;;;20.57;85.34
35910;BME280;22004;49.120;-0.200;2022-08-16T08:24:58;100512.59;;;20.66;84.41
35910;BME280;22004;49.120;-0.200;2022-08-16T08:27:23;100512.84;;;20.83;84.53
35910;BME280;22004;49.120;-0.200;2022-08-16T08:29:50;100524.72;;;20.90;83.28
35910;BME280;22004;49.120;-0.200;2022-08-16T08:32:15;100532.31;;;21.05;83.37
35910;BME280;22004;49.120;-0.200;2022-08-16T08:34:40;100528.16;;;21.10;82.30
35910;BME280;22004;49.120;-0.200;2022-08-16T08:37:06;100526.88;;;21.32;82.06
35910;BME280;22004;49.120;-0.200;2022-08-16T08:39:32;100528.59;;;21.51;81.40
35910;BME280;22004;49.120;-0.200;2022-08-16T08:41:58;100531.09;;;21.63;81.02
35910;BME280;22004;49.120;-0.200;2022-08-16T08:44:24;100526.97;;;21.41;80.91
35910;BME280;22004;49.120;-0.200;2022-08-16T08:46:49;100531.59;;;21.30;81.66
35910;BME280;22004;49.120;-0.200;2022-08-16T08:49:15;100532.66;;;21.19;82.23
35910;BME280;22004;49.120;-0.200;2022-08-16T08:51:40;100535.41;;;21.10;81.91
35910;BME280;22004;49.120;-0.200;2022-08-16T08:54:07;100529.53;;;20.96;82.43
35910;BME280;22004;49.120;-0.200;2022-08-16T08:56:38;100527.06;;;21.03;82.58
35910;BME280;22004;49.120;-0.200;2022-08-16T08:59:05;100532.41;;;21.13;82.60
35910;BME280;22004;49.120;-0.200;2022-08-16T09:01:34;100529.44;;;21.34;81.73
35910;BME280;22004;49.120;-0.200;2022-08-16T09:04:00;100526.34;;;21.47;82.29
35910;BME280;22004;49.120;-0.200;2022-08-16T09:06:28;100522.22;;;21.70;80.30
35910;BME280;22004;49.120;-0.200;2022-08-16T09:08:55;100515.09;;;22.06;78.70
35910;BME280;22004;49.120;-0.200;2022-08-16T09:11:21;100518.78;;;22.31;77.72
35910;BME280;22004;49.120;-0.200;2022-08-16T09:13:46;100514.97;;;22.68;75.22
35910;BME280;22004;49.120;-0.200;2022-08-16T09:16:13;100515.19;;;23.26;73.21
35910;BME280;22004;49.120;-0.200;2022-08-16T09:18:40;100516.34;;;23.15;72.85
35910;BME280;22004;49.120;-0.200;2022-08-16T09:21:06;100516.28;;;23.07;72.28
35910;BME280;22004;49.120;-0.200;2022-08-16T09:23:33;100513.94;;;23.12;72.37
35910;BME280;22004;49.120;-0.200;2022-08-16T09:26:00;100513.66;;;23.23;72.67
35910;BME280;22004;49.120;-0.200;2022-08-16T09:28:26;100507.63;;;23.54;70.75
35910;BME280;22004;49.120;-0.200;2022-08-16T09:30:52;100498.03;;;23.93;70.97
35910;BME280;22004;49.120;-0.200;2022-08-16T09:33:18;100509.16;;;23.73;69.91
35910;BME280;22004;49.120;-0.200;2022-08-16T09:35:44;100508.94;;;23.25;70.67
35910;BME280;22004;49.120;-0.200;2022-08-16T09:38:11;100505.91;;;23.28;70.06
35910;BME280;22004;49.120;-0.200;2022-08-16T09:40:41;100518.16;;;23.06;71.30
35910;BME280;22004;49.120;-0.200;2022-08-16T09:43:11;100510.47;;;23.19;70.46
35910;BME280;22004;49.120;-0.200;2022-08-16T09:45:37;100505.91;;;23.45;69.68
35910;BME280;22004;49.120;-0.200;2022-08-16T09:48:06;100509.31;;;23.38;69.13
35910;BME280;22004;49.120;-0.200;2022-08-16T09:50:32;100505.53;;;23.15;68.96
35910;BME280;22004;49.120;-0.200;2022-08-16T09:52:59;100504.81;;;23.04;70.57
35910;BME280;22004;49.120;-0.200;2022-08-16T09:55:25;100501.25;;;23.04;70.07
35910;BME280;22004;49.120;-0.200;2022-08-16T09:57:51;100497.94;;;22.84;69.82
35910;BME280;22004;49.120;-0.200;2022-08-16T10:00:16;100496.88;;;22.68;69.60
35910;BME280;22004;49.120;-0.200;2022-08-16T10:02:42;100496.56;;;22.71;70.02
35910;BME280;22004;49.120;-0.200;2022-08-16T10:05:08;100496.25;;;22.75;71.29
35910;BME280;22004;49.120;-0.200;2022-08-16T10:07:34;100500.75;;;22.66;72.58
35910;BME280;22004;49.120;-0.200;2022-08-16T10:09:59;100499.03;;;22.57;73.59
35910;BME280;22004;49.120;-0.200;2022-08-16T10:12:28;100501.34;;;22.51;73.22
35910;BME280;22004;49.120;-0.200;2022-08-16T10:15:19;100502.47;;;22.41;73.24
35910;BME280;22004;49.120;-0.200;2022-08-16T10:17:47;100500.28;;;22.36;73.10
35910;BME280;22004;49.120;-0.200;2022-08-16T10:20:14;100512.94;;;22.35;73.31
35910;BME280;22004;49.120;-0.200;2022-08-16T10:22:39;100507.69;;;22.34;73.36
35910;BME280;22004;49.120;-0.200;2022-08-16T10:25:06;100508.72;;;22.15;72.80
35910;BME280;22004;49.120;-0.200;2022-08-16T10:27:31;100506.50;;;22.10;73.73
35910;BME280;22004;49.120;-0.200;2022-08-16T10:29:59;100498.56;;;22.09;73.08
35910;BME280;22004;49.120;-0.200;2022-08-16T10:32:24;100495.38;;;22.13;72.98
35910;BME280;22004;49.120;-0.200;2022-08-16T10:34:49;100505.72;;;22.18;73.86
35910;BME280;22004;49.120;-0.200;2022-08-16T10:37:15;100510.53;;;22.06;75.27
35910;BME280;22004;49.120;-0.200;2022-08-16T10:39:40;100507.13;;;22.04;74.95
35910;BME280;22004;49.120;-0.200;2022-08-16T10:42:06;100506.44;;;22.02;74.35
35910;BME280;22004;49.120;-0.200;2022-08-16T10:44:31;100506.13;;;22.31;74.44
35910;BME280;22004;49.120;-0.200;2022-08-16T10:46:56;100504.19;;;22.42;73.73
35910;BME280;22004;49.120;-0.200;2022-08-16T10:49:22;100511.28;;;22.43;74.41
35910;BME280;22004;49.120;-0.200;2022-08-16T10:51:47;100501.09;;;22.36;74.80
35910;BME280;22004;49.120;-0.200;2022-08-16T10:54:12;100498.78;;;22.42;74.69
35910;BME280;22004;49.120;-0.200;2022-08-16T10:56:39;100495.56;;;22.38;74.83
35910;BME280;22004;49.120;-0.200;2022-08-16T10:59:04;100490.59;;;22.33;73.55
35910;BME280;22004;49.120;-0.200;2022-08-16T11:01:30;100487.91;;;22.33;72.35
35910;BME280;22004;49.120;-0.200;2022-08-16T11:03:56;100482.91;;;22.39;71.43
35910;BME280;22004;49.120;-0.200;2022-08-16T11:06:22;100484.25;;;22.43;71.45
35910;BME280;22004;49.120;-0.200;2022-08-16T11:08:48;100489.56;;;22.26;73.21
35910;BME280;22004;49.120;-0.200;2022-08-16T11:11:14;100486.81;;;22.44;73.56
35910;BME280;22004;49.120;-0.200;2022-08-16T11:13:40;100492.72;;;22.40;74.83
35910;BME280;22004;49.120;-0.200;2022-08-16T11:16:07;100490.06;;;22.30;74.70
35910;BME280;22004;49.120;-0.200;2022-08-16T11:18:33;100486.59;;;22.37;73.91
35910;BME280;22004;49.120;-0.200;2022-08-16T11:20:59;100483.22;;;22.35;73.36
35910;BME280;22004;49.120;-0.200;2022-08-16T11:23:26;100479.00;;;22.76;72.33
35910;BME280;22004;49.120;-0.200;2022-08-16T11:25:52;100473.13;;;22.88;72.08
35910;BME280;22004;49.120;-0.200;2022-08-16T11:28:18;100492.91;;;22.89;71.86
35910;BME280;22004;49.120;-0.200;2022-08-16T11:30:44;100491.34;;;23.21;70.49
35910;BME280;22004;49.120;-0.200;2022-08-16T11:33:11;100492.72;;;23.33;69.79
35910;BME280;22004;49.120;-0.200;2022-08-16T11:35:37;100493.06;;;23.30;68.57
35910;BME280;22004;49.120;-0.200;2022-08-16T11:38:09;100494.78;;;23.97;66.17
35910;BME280;22004;49.120;-0.200;2022-08-16T11:40:39;100497.31;;;23.99;65.45
35910;BME280;22004;49.120;-0.200;2022-08-16T11:43:06;100494.97;;;23.63;67.93
35910;BME280;22004;49.120;-0.200;2022-08-16T11:45:33;100495.59;;;23.81;66.70
35910;BME280;22004;49.120;-0.200;2022-08-16T11:47:59;100500.84;;;23.58;67.69
35910;BME280;22004;49.120;-0.200;2022-08-16T11:50:25;100506.28;;;23.66;66.91
35910;BME280;22004;49.120;-0.200;2022-08-16T11:52:51;100499.84;;;23.67;67.46
35910;BME280;22004;49.120;-0.200;2022-08-16T11:55:17;100503.25;;;24.02;66.88
35910;BME280;22004;49.120;-0.200;2022-08-16T11:57:42;100495.63;;;25.42;62.43
35910;BME280;22004;49.120;-0.200;2022-08-16T12:00:12;100490.44;;;25.78;60.86
35910;BME280;22004;49.120;-0.200;2022-08-16T12:02:39;100484.69;;;24.95;61.89
35910;BME280;22004;49.120;-0.200;2022-08-16T12:05:07;100502.06;;;26.10;59.93
35910;BME280;22004;49.120;-0.200;2022-08-16T12:07:33;100500.47;;;25.78;58.93
35910;BME280;22004;49.120;-0.200;2022-08-16T12:09:59;100501.25;;;25.40;60.05
35910;BME280;22004;49.120;-0.200;2022-08-16T12:12:25;100497.44;;;25.18;60.42
35910;BME280;22004;49.120;-0.200;2022-08-16T12:14:51;100509.72;;;25.05;60.22
35910;BME280;22004;49.120;-0.200;2022-08-16T12:17:16;100508.41;;;25.01;60.02
35910;BME280;22004;49.120;-0.200;2022-08-16T12:19:43;100503.97;;;25.40;59.22
35910;BME280;22004;49.120;-0.200;2022-08-16T12:22:09;100500.41;;;25.31;59.41
35910;BME280;22004;49.120;-0.200;2022-08-16T12:24:34;100508.84;;;25.68;57.71
35910;BME280;22004;49.120;-0.200;2022-08-16T12:27:01;100509.44;;;25.78;57.23
35910;BME280;22004;49.120;-0.200;2022-08-16T12:29:27;100513.03;;;25.24;58.60
35910;BME280;22004;49.120;-0.200;2022-08-16T12:31:53;100513.44;;;24.73;60.16
35910;BME280;22004;49.120;-0.200;2022-08-16T12:34:19;100511.19;;;25.16;59.07
35910;BME280;22004;49.120;-0.200;2022-08-16T12:36:44;100496.34;;;25.59;56.69
35910;BME280;22004;49.120;-0.200;2022-08-16T12:39:12;100498.16;;;26.43;55.66